createdAt,value
2022-11-24T05:06:57.200Z,27.33
2022-11-24T05:10:18.185Z,30.75
2022-11-24T05:13:20.226Z,31.58
2022-11-24T05:16:22.530Z,30.52
2022-11-24T05:19:26.299Z,30.88
2022-11-24T05:22:32.496Z,31.25
2022-11-24T05:25:35.340Z,29.95
2022-11-24T05:28:37.624Z,29.55
2022-11-24T05:31:39.718Z,29.63
2022-11-24T05:34:42.013Z,30.20
2022-11-24T05:37:44.039Z,30.88
2022-11-24T05:40:46.400Z,27.27
2022-11-24T05:43:48.445Z,31.92
2022-11-24T05:46:51.163Z,29.58
2022-11-24T05:49:53.258Z,30.30
2022-11-24T05:52:55.557Z,29.33
2022-11-24T05:55:57.784Z,30.02
2022-11-24T05:59:00.929Z,30.95
2022-11-24T06:02:05.239Z,30.20
2022-11-24T06:05:08.262Z,31.27
2022-11-24T06:08:10.308Z,29.25
2022-11-24T06:11:18.531Z,30.58
2022-11-24T06:14:20.592Z,22.65
2022-11-24T06:17:22.918Z,25.42
2022-11-24T06:20:28.503Z,22.45
2022-11-24T06:23:33.768Z,22.92
2022-11-24T06:26:35.840Z,25.00
2022-11-24T06:29:38.778Z,26.08
2022-11-24T06:32:49.156Z,26.50
2022-11-24T06:35:52.396Z,26.60
2022-11-24T06:38:54.708Z,27.05
2022-11-24T06:41:57.420Z,24.75
2022-11-24T06:45:00.326Z,26.52
2022-11-24T06:48:02.839Z,25.90
2022-11-24T06:51:07.338Z,26.08
2022-11-24T06:54:13.780Z,25.65
2022-11-24T06:57:15.846Z,23.58
2022-11-24T07:00:18.699Z,25.42
2022-11-24T07:03:20.809Z,23.73
2022-11-24T07:06:25.204Z,24.20
2022-11-24T07:09:27.426Z,25.05
2022-11-24T07:12:35.780Z,24.40
2022-11-24T07:15:40.275Z,25.98
2022-11-24T07:18:47.375Z,23.38
2022-11-24T07:21:49.475Z,24.70
2022-11-24T07:24:51.904Z,23.52
2022-11-24T07:27:57.899Z,24.33
2022-11-24T07:31:12.309Z,24.58
2022-11-24T07:34:14.874Z,23.23
2022-11-24T07:37:17.299Z,24.87
2022-11-24T07:40:19.352Z,23.42
2022-11-24T07:43:21.694Z,23.90
2022-11-24T07:46:24.159Z,22.02
2022-11-24T07:49:26.562Z,23.35
2022-11-24T07:52:28.606Z,22.02
2022-11-24T07:55:30.945Z,20.42
2022-11-24T07:58:35.866Z,21.70
2022-11-24T08:01:38.224Z,20.20
2022-11-24T08:04:40.561Z,21.10
2022-11-24T08:07:42.699Z,20.15
2022-11-24T08:10:45.038Z,21.00
2022-11-24T08:13:47.279Z,21.27
2022-11-24T08:16:49.813Z,20.52
2022-11-24T08:19:51.876Z,21.85
2022-11-24T08:22:58.339Z,20.77
2022-11-24T08:26:05.337Z,22.00
2022-11-24T08:29:07.755Z,21.90
2022-11-24T08:32:10.885Z,21.23
2022-11-24T08:35:14.231Z,22.45
2022-11-24T08:38:17.285Z,24.08
2022-11-24T08:41:19.581Z,22.50
2022-11-24T08:44:21.599Z,22.15
2022-11-24T08:47:23.924Z,23.33
2022-11-24T08:50:26.306Z,23.98
2022-11-24T08:53:28.584Z,25.10
2022-11-24T08:56:34.293Z,24.98
2022-11-24T08:59:37.106Z,24.98
2022-11-24T09:02:39.403Z,23.77
2022-11-24T09:05:57.262Z,24.52
2022-11-24T09:08:59.927Z,21.95
2022-11-24T09:12:02.212Z,25.73
2022-11-24T09:15:04.976Z,25.80
2022-11-24T09:18:07.586Z,24.90
2022-11-24T09:21:12.444Z,23.62
2022-11-24T09:24:16.481Z,24.80
2022-11-24T09:27:18.507Z,24.50
2022-11-24T09:30:20.977Z,25.08
2022-11-24T09:33:23.120Z,24.23
2022-11-24T09:36:25.574Z,20.88
2022-11-24T09:39:27.665Z,23.30
2022-11-24T09:42:40.837Z,23.50
2022-11-24T09:49:14.415Z,19.58
2022-11-24T09:52:23.147Z,20.58
2022-11-24T09:55:32.432Z,20.42
2022-11-24T09:58:45.871Z,20.65
2022-11-24T10:01:50.511Z,20.60
2022-11-24T10:04:54.716Z,21.23
2022-11-24T10:08:25.794Z,18.35
2022-11-24T10:11:38.116Z,19.52
2022-11-24T10:15:19.087Z,17.50
2022-11-24T10:18:33.743Z,19.10
2022-11-24T10:21:54.511Z,17.58
2022-11-24T10:25:19.289Z,18.77
2022-11-24T10:28:21.378Z,16.60
2022-11-24T10:31:36.119Z,16.73
2022-11-24T10:34:43.401Z,17.80
2022-11-24T10:38:02.325Z,15.70
2022-11-24T10:41:20.261Z,17.48
2022-11-24T10:44:22.644Z,16.48
2022-11-24T10:47:24.712Z,17.20
2022-11-24T10:50:30.511Z,17.90
2022-11-24T10:53:35.406Z,17.60
2022-11-24T10:56:42.383Z,17.55
2022-11-24T10:59:44.426Z,17.58
2022-11-24T11:02:48.773Z,17.25
2022-11-24T11:05:56.902Z,18.55
2022-11-24T11:09:20.986Z,19.85
2022-11-24T11:12:47.655Z,18.55
2022-11-24T11:15:50.388Z,18.23
2022-11-24T11:18:53.177Z,18.17
2022-11-24T11:22:02.036Z,18.08
2022-11-24T11:25:10.132Z,19.27
2022-11-24T11:28:18.816Z,16.80
2022-11-24T11:31:22.775Z,17.50
2022-11-24T11:34:35.277Z,18.02
2022-11-24T11:37:37.337Z,17.62
2022-11-24T11:40:43.570Z,16.45
2022-11-24T11:43:50.564Z,16.67
2022-11-24T11:46:54.801Z,16.35
2022-11-24T11:49:57.679Z,15.93
2022-11-24T11:53:18.641Z,15.10
2022-11-24T11:56:30.685Z,14.43
2022-11-24T11:59:55.035Z,15.57
2022-11-24T12:03:42.452Z,15.27
2022-11-24T12:07:06.464Z,13.85
2022-11-24T12:10:25.312Z,14.00
2022-11-24T12:13:53.763Z,13.10
2022-11-24T12:17:08.866Z,14.50
2022-11-24T12:20:37.765Z,14.48
2022-11-24T12:23:52.097Z,14.20
2022-11-24T12:27:03.924Z,13.02
2022-11-24T12:30:12.712Z,13.52
2022-11-24T12:33:30.162Z,13.48
2022-11-24T12:36:41.168Z,13.27
2022-11-24T12:40:03.771Z,12.77
2022-11-24T12:43:22.626Z,12.75
2022-11-24T12:46:51.922Z,12.73
2022-11-24T12:50:06.016Z,13.40
2022-11-24T12:53:21.939Z,13.10
2022-11-24T12:56:43.329Z,13.88
2022-11-24T13:00:07.779Z,13.77
2022-11-24T13:03:31.153Z,13.82
2022-11-24T13:07:10.933Z,13.88
2022-11-24T13:10:55.479Z,11.77
2022-11-24T13:17:40.601Z,11.57
2022-11-24T13:20:52.516Z,14.32
2022-11-24T13:23:59.616Z,11.82
2022-11-24T13:27:18.767Z,12.43
2022-11-24T13:30:35.828Z,11.77
2022-11-24T13:33:38.846Z,13.73
2022-11-24T13:36:53.644Z,13.23
2022-11-24T13:40:11.734Z,12.02
2022-11-24T13:43:13.787Z,12.02
2022-11-24T13:46:56.616Z,12.35
2022-11-24T13:50:04.717Z,12.57
2022-11-24T13:53:18.224Z,13.02
2022-11-24T13:56:24.512Z,12.43
2022-11-24T14:02:35.162Z,13.50
2022-11-24T14:05:41.094Z,11.90
2022-11-24T14:08:45.716Z,12.00
2022-11-24T14:11:59.647Z,12.80
2022-11-24T14:15:22.359Z,12.35
2022-11-24T14:18:24.937Z,12.65
2022-11-24T14:21:42.303Z,12.57
2022-11-24T14:24:50.803Z,11.80
2022-11-24T14:27:52.941Z,11.55
2022-11-24T14:31:10.056Z,11.73
2022-11-24T14:34:12.098Z,12.73
2022-11-24T14:37:14.457Z,12.25
2022-11-24T14:40:45.098Z,12.60
2022-11-24T14:43:47.514Z,12.77
2022-11-24T14:46:50.534Z,12.05
2022-11-24T14:49:54.125Z,12.05
2022-11-24T14:52:58.428Z,12.30
2022-11-24T14:56:21.210Z,11.52
2022-11-24T14:59:25.889Z,11.82
2022-11-24T15:02:48.284Z,13.43
2022-11-24T15:05:56.041Z,12.60
2022-11-24T15:08:58.499Z,12.32
2022-11-24T15:12:06.608Z,12.00
2022-11-24T15:15:15.050Z,12.98
2022-11-24T15:18:35.704Z,13.57
2022-11-24T15:21:38.009Z,14.35
2022-11-24T15:24:50.996Z,15.15
2022-11-24T15:27:53.388Z,14.90
2022-11-24T15:31:01.468Z,14.20
2022-11-24T15:34:03.860Z,14.10
2022-11-24T15:37:05.906Z,12.95
2022-11-24T15:40:10.356Z,15.25
2022-11-24T15:43:29.490Z,15.02
2022-11-24T15:46:38.061Z,14.43
2022-11-24T15:49:40.449Z,14.57
2022-11-24T15:52:43.267Z,14.10
2022-11-24T15:55:45.628Z,12.70
2022-11-24T15:58:48.486Z,13.85
2022-11-24T16:01:50.817Z,15.43
2022-11-24T16:04:53.392Z,13.73
2022-11-24T16:07:55.546Z,13.43
2022-11-24T16:10:57.932Z,14.73
2022-11-24T16:14:00.115Z,15.48
2022-11-24T16:17:03.154Z,16.77
2022-11-24T16:20:05.956Z,16.12
2022-11-24T16:23:08.272Z,17.00
2022-11-24T16:26:10.420Z,16.48
2022-11-24T16:29:12.880Z,16.23
2022-11-24T16:32:14.970Z,16.55
2022-11-24T16:35:17.638Z,16.65
2022-11-24T16:38:20.348Z,16.40
2022-11-24T16:41:23.137Z,17.62
2022-11-24T16:44:25.216Z,16.62
